createdAt,value
2023-05-21T00:00:29.530Z,102065.31
2023-05-21T00:03:33.964Z,102070.69
2023-05-21T00:06:38.361Z,102060.41
2023-05-21T00:09:42.459Z,102053.41
2023-05-21T00:12:46.115Z,102051.69
2023-05-21T00:15:51.023Z,102054.44
2023-05-21T00:18:55.848Z,102050.16
2023-05-21T00:22:02.316Z,102056.28
2023-05-21T00:25:07.051Z,102047.63
2023-05-21T00:28:10.613Z,102045.97
2023-05-21T00:31:16.223Z,102045.34
2023-05-21T00:34:20.342Z,102044.31
2023-05-21T00:37:24.832Z,102044.47
2023-05-21T00:40:28.404Z,102038.28
2023-05-21T00:43:33.324Z,102039.19
2023-05-21T00:46:42.344Z,102030.31
2023-05-21T00:49:47.256Z,102036.53
2023-05-21T00:52:51.756Z,102034.81
2023-05-21T00:55:55.600Z,102032.34
2023-05-21T00:59:00.416Z,102027.91
2023-05-21T01:02:07.055Z,102020.97
2023-05-21T01:05:11.656Z,102025.44
2023-05-21T01:08:15.262Z,102023.72
2023-05-21T01:11:22.030Z,102022.00
2023-05-21T01:14:26.624Z,102014.97
2023-05-21T01:17:32.224Z,102021.16
2023-05-21T01:20:36.319Z,102018.63
2023-05-21T01:23:41.578Z,102019.50
2023-05-21T01:26:46.696Z,102021.31
2023-05-21T01:29:50.419Z,102014.22
2023-05-21T01:33:03.784Z,102014.44
2023-05-21T01:36:18.319Z,102003.22
2023-05-21T01:39:31.268Z,102012.00
2023-05-21T01:42:40.098Z,102003.28
2023-05-21T01:45:47.660Z,102000.66
2023-05-21T01:48:53.951Z,102001.63
2023-05-21T01:51:57.778Z,101998.22
2023-05-21T01:55:02.653Z,101998.13
2023-05-21T01:58:06.316Z,101992.94
2023-05-21T02:01:09.842Z,101993.78
2023-05-21T02:04:13.370Z,101994.72
2023-05-21T02:07:18.553Z,101987.75
2023-05-21T02:10:23.852Z,101993.81
2023-05-21T02:13:29.248Z,101981.53
2023-05-21T02:16:32.918Z,101981.66
2023-05-21T02:19:36.521Z,101989.69
2023-05-21T02:22:41.220Z,101980.81
2023-05-21T02:25:46.457Z,101975.53
2023-05-21T02:28:50.122Z,101979.97
2023-05-21T02:31:53.667Z,101970.38
2023-05-21T02:34:58.546Z,101969.59
2023-05-21T02:38:03.121Z,101973.94
2023-05-21T02:41:08.412Z,101974.78
2023-05-21T02:44:11.940Z,101979.25
2023-05-21T02:47:15.616Z,101976.81
2023-05-21T02:50:19.183Z,101976.81
2023-05-21T02:53:22.926Z,101983.84
2023-05-21T02:56:27.907Z,101975.97
2023-05-21T02:59:31.488Z,101971.75
2023-05-21T03:02:35.276Z,101980.53
2023-05-21T03:05:38.996Z,101988.47
2023-05-21T03:08:42.508Z,101970.16
2023-05-21T03:11:47.404Z,101970.22
2023-05-21T03:14:51.576Z,101969.31
2023-05-21T03:17:55.600Z,101977.25
2023-05-21T03:20:59.264Z,101967.72
2023-05-21T03:24:03.046Z,101973.72
2023-05-21T03:27:08.242Z,101957.91
2023-05-21T03:30:13.320Z,101954.59
2023-05-21T03:33:17.461Z,101958.91
2023-05-21T03:36:21.403Z,101955.41
2023-05-21T03:39:24.941Z,101951.00
2023-05-21T03:42:29.843Z,101948.56
2023-05-21T03:45:33.329Z,101952.16
2023-05-21T03:48:36.874Z,101953.78
2023-05-21T03:51:40.500Z,101945.91
2023-05-21T03:54:44.156Z,101953.66
2023-05-21T03:57:49.031Z,101959.16
2023-05-21T04:00:52.743Z,101952.03
2023-05-21T04:03:56.721Z,101957.38
2023-05-21T04:07:01.002Z,101959.84
2023-05-21T04:10:04.882Z,101967.69
2023-05-21T04:13:09.707Z,101955.47
2023-05-21T04:16:14.832Z,101964.25
2023-05-21T04:19:18.480Z,101966.16
2023-05-21T04:22:23.466Z,101959.19
2023-05-21T04:25:26.961Z,101957.09
2023-05-21T04:28:32.096Z,101959.63
2023-05-21T04:31:35.891Z,101962.47
2023-05-21T04:34:39.803Z,101968.59
2023-05-21T04:37:45.971Z,101960.44
2023-05-21T04:40:52.390Z,101966.44
2023-05-21T04:43:57.282Z,101956.88
2023-05-21T04:47:01.041Z,101960.13
2023-05-21T04:50:06.675Z,101956.28
2023-05-21T04:53:11.274Z,101962.69
2023-05-21T04:56:14.858Z,101958.69
2023-05-21T04:59:20.200Z,101953.38
2023-05-21T05:02:23.753Z,101947.28
2023-05-21T05:05:27.560Z,101937.34
2023-05-21T05:08:31.160Z,101943.19
2023-05-21T05:11:34.640Z,101942.31
2023-05-21T05:14:39.538Z,101934.03
2023-05-21T05:17:43.151Z,101936.47
2023-05-21T05:20:46.882Z,101929.84
2023-05-21T05:23:50.603Z,101928.38
2023-05-21T05:26:54.100Z,101936.88
2023-05-21T05:29:59.010Z,101935.63
2023-05-21T05:33:02.545Z,101930.03
2023-05-21T05:36:06.540Z,101926.72
2023-05-21T05:39:10.300Z,101929.63
2023-05-21T05:42:13.963Z,101920.75
2023-05-21T05:45:26.879Z,101925.16
2023-05-21T05:48:31.132Z,101924.00
2023-05-21T05:51:34.734Z,101923.00
2023-05-21T05:54:38.325Z,101915.13
2023-05-21T05:57:43.253Z,101917.63
2023-05-21T06:00:49.839Z,101917.69
2023-05-21T06:03:53.705Z,101919.78
2023-05-21T06:06:58.748Z,101912.94
2023-05-21T06:10:02.295Z,101915.72
2023-05-21T06:13:05.877Z,101918.66
2023-05-21T06:16:11.538Z,101915.44
2023-05-21T06:19:15.161Z,101913.84
2023-05-21T06:22:19.064Z,101905.31
2023-05-21T06:25:23.042Z,101906.66
2023-05-21T06:28:26.762Z,101902.41
2023-05-21T06:31:35.072Z,101906.72
2023-05-21T06:34:39.085Z,101898.78
2023-05-21T06:37:43.232Z,101907.97
2023-05-21T06:40:47.870Z,101906.59
2023-05-21T06:43:51.638Z,101897.78
2023-05-21T06:46:57.677Z,101902.63
2023-05-21T06:50:01.322Z,101895.75
2023-05-21T06:53:05.236Z,101894.53
2023-05-21T06:56:09.352Z,101888.69
2023-05-21T06:59:12.913Z,101887.34
2023-05-21T07:02:18.268Z,101891.00
2023-05-21T07:05:22.196Z,101884.84
2023-05-21T07:08:26.017Z,101887.28
2023-05-21T07:11:30.043Z,101886.69
2023-05-21T07:14:33.488Z,101883.00
2023-05-21T07:17:39.328Z,101876.78
2023-05-21T07:20:43.079Z,101872.63
2023-05-21T07:23:46.833Z,101865.63
2023-05-21T07:26:51.601Z,101881.94
2023-05-21T07:29:55.558Z,101869.69
2023-05-21T07:33:00.568Z,101879.16
2023-05-21T07:36:04.751Z,101868.97
2023-05-21T07:39:08.287Z,101876.22
2023-05-21T07:42:11.878Z,101872.34
2023-05-21T07:45:33.743Z,101865.00
2023-05-21T07:48:38.748Z,101874.31
2023-05-21T07:51:42.774Z,101876.91
2023-05-21T07:54:46.900Z,101867.78
2023-05-21T07:57:52.443Z,101864.47
2023-05-21T08:00:57.298Z,101866.47
2023-05-21T08:04:05.922Z,101863.88
2023-05-21T08:07:10.798Z,101855.44
2023-05-21T08:10:15.738Z,101866.25
2023-05-21T08:13:20.839Z,101855.34
2023-05-21T08:16:24.679Z,101855.94
2023-05-21T08:19:29.863Z,101850.34
2023-05-21T08:22:33.461Z,101852.28
2023-05-21T08:25:37.161Z,101844.81
2023-05-21T08:28:40.838Z,101855.38
2023-05-21T08:31:44.389Z,101847.50
2023-05-21T08:34:49.622Z,101837.53
2023-05-21T08:37:53.433Z,101827.66
2023-05-21T08:40:57.798Z,101840.00
2023-05-21T08:44:04.047Z,101840.09
2023-05-21T08:47:12.452Z,101841.69
2023-05-21T08:50:19.599Z,101838.25
2023-05-21T08:53:28.635Z,101839.69
2023-05-21T08:56:33.954Z,101834.28
2023-05-21T08:59:40.089Z,101833.72
2023-05-21T09:02:44.687Z,101834.16
2023-05-21T09:05:51.822Z,101836.47
2023-05-21T09:09:07.810Z,101829.97
2023-05-21T09:12:11.515Z,101825.91
2023-05-21T09:15:15.087Z,101829.03
2023-05-21T09:18:19.614Z,101823.56
2023-05-21T09:21:30.072Z,101810.28
2023-05-21T09:24:36.112Z,101821.13
2023-05-21T09:27:40.905Z,101818.03
2023-05-21T09:30:48.222Z,101817.59
2023-05-21T09:33:52.204Z,101819.59
2023-05-21T09:37:01.636Z,101821.03
2023-05-21T09:40:13.760Z,101820.03
2023-05-21T09:43:18.256Z,101826.38
2023-05-21T09:46:27.882Z,101822.00
2023-05-21T09:49:31.635Z,101823.03
2023-05-21T09:52:40.136Z,101821.97
2023-05-21T09:55:45.582Z,101816.50
2023-05-21T09:58:49.327Z,101808.28
2023-05-21T10:01:55.445Z,101803.28
2023-05-21T10:05:00.662Z,101801.44
2023-05-21T10:08:09.562Z,101801.28
2023-05-21T10:11:14.164Z,101791.50
2023-05-21T10:14:22.702Z,101795.50
2023-05-21T10:17:28.434Z,101784.53
2023-05-21T10:20:33.048Z,101783.31
2023-05-21T10:23:39.823Z,101785.69
2023-05-21T10:26:44.525Z,101778.63
2023-05-21T10:29:50.132Z,101770.53
2023-05-21T10:32:56.623Z,101773.13
2023-05-21T10:36:01.321Z,101765.75
2023-05-21T10:39:09.656Z,101766.56
2023-05-21T10:42:25.933Z,101761.81
2023-05-21T10:45:52.278Z,101760.13
2023-05-21T10:49:18.374Z,101765.31
2023-05-21T10:52:51.904Z,101758.97
2023-05-21T10:56:15.866Z,101751.41
2023-05-21T10:59:37.543Z,101749.28
2023-05-21T11:02:41.636Z,101749.84
2023-05-21T11:05:55.242Z,101750.06
2023-05-21T11:09:03.132Z,101739.69
2023-05-21T11:12:09.887Z,101740.72
2023-05-21T11:15:17.684Z,101738.63
2023-05-21T11:18:21.313Z,101733.63
2023-05-21T11:21:28.354Z,101737.97
2023-05-21T11:24:34.736Z,101739.16
2023-05-21T11:27:42.135Z,101733.34
2023-05-21T11:31:25.811Z,101730.38
2023-05-21T11:34:40.581Z,101732.00
2023-05-21T11:37:46.150Z,101728.56
2023-05-21T11:40:55.012Z,101731.78
2023-05-21T11:44:03.960Z,101725.06
2023-05-21T11:47:09.437Z,101727.47
2023-05-21T11:50:15.725Z,101714.88
2023-05-21T11:53:19.484Z,101719.59
2023-05-21T11:56:24.474Z,101715.28
2023-05-21T11:59:29.694Z,101711.22
2023-05-21T12:02:33.989Z,101711.13
2023-05-21T12:05:46.808Z,101715.09
2023-05-21T12:08:58.101Z,101708.25
2023-05-21T12:12:02.829Z,101710.50
2023-05-21T12:15:10.237Z,101704.69
2023-05-21T12:18:16.669Z,101698.50
2023-05-21T12:21:20.165Z,101697.84
2023-05-21T12:24:24.197Z,101701.00
2023-05-21T12:27:28.307Z,101691.66
2023-05-21T12:30:33.569Z,101691.88
2023-05-21T12:33:37.092Z,101692.53
2023-05-21T12:36:41.063Z,101683.50
2023-05-21T12:39:46.813Z,101698.00
2023-05-21T12:42:52.222Z,101687.97
2023-05-21T12:45:57.795Z,101688.63
2023-05-21T12:49:01.397Z,101685.31
2023-05-21T12:52:12.609Z,101690.44
2023-05-21T12:55:16.533Z,101680.59
2023-05-21T12:58:23.585Z,101676.13
2023-05-21T13:01:28.698Z,101674.31
2023-05-21T13:04:32.447Z,101673.44
2023-05-21T13:07:38.952Z,101669.75
2023-05-21T13:10:42.730Z,101665.88
2023-05-21T13:13:46.345Z,101662.97
2023-05-21T13:16:51.559Z,101658.09
2023-05-21T13:20:10.270Z,101659.31
2023-05-21T13:23:13.996Z,101651.75
2023-05-21T13:26:17.644Z,101649.69
2023-05-21T13:29:21.293Z,101647.13
2023-05-21T13:32:26.378Z,101638.47
2023-05-21T13:35:31.059Z,101652.50
2023-05-21T13:38:34.711Z,101657.84
2023-05-21T13:41:38.320Z,101651.41
2023-05-21T13:44:42.032Z,101641.38
2023-05-21T13:47:48.798Z,101640.41
2023-05-21T13:50:52.620Z,101637.06
2023-05-21T13:53:56.849Z,101636.84
2023-05-21T13:57:01.336Z,101640.38
2023-05-21T14:00:06.667Z,101632.75
2023-05-21T14:03:11.811Z,101629.41
2023-05-21T14:06:15.313Z,101620.13
2023-05-21T14:09:18.930Z,101623.53
2023-05-21T14:12:22.479Z,101622.88
2023-05-21T14:15:26.745Z,101615.19
2023-05-21T14:18:31.663Z,101619.66
2023-05-21T14:21:35.204Z,101615.63
2023-05-21T14:24:38.731Z,101615.00
2023-05-21T14:27:42.464Z,101619.47
2023-05-21T14:30:46.054Z,101613.59
2023-05-21T14:33:51.080Z,101613.88
2023-05-21T14:36:54.667Z,101611.88
2023-05-21T14:39:58.268Z,101612.00
2023-05-21T14:43:01.761Z,101616.00
2023-05-21T14:46:05.333Z,101605.97
2023-05-21T14:49:11.910Z,101612.84
2023-05-21T14:52:15.396Z,101605.66
2023-05-21T14:55:22.325Z,101597.59
2023-05-21T14:58:25.808Z,101598.13
2023-05-21T15:01:29.453Z,101604.13
2023-05-21T15:04:34.624Z,101589.59
2023-05-21T15:07:38.160Z,101590.72
2023-05-21T15:10:41.736Z,101588.69
2023-05-21T15:13:45.423Z,101585.97
2023-05-21T15:16:49.091Z,101581.00
2023-05-21T15:19:54.105Z,101579.69
2023-05-21T15:23:15.214Z,101579.34
2023-05-21T15:26:20.152Z,101581.22
2023-05-21T15:29:23.814Z,101573.16
2023-05-21T15:32:27.399Z,101570.78
2023-05-21T15:35:32.540Z,101574.06
2023-05-21T15:38:36.108Z,101558.84
2023-05-21T15:41:41.343Z,101558.47
2023-05-21T15:44:44.895Z,101562.94
2023-05-21T15:47:48.740Z,101566.47
2023-05-21T15:50:54.516Z,101562.91
2023-05-21T15:53:58.073Z,101561.00
2023-05-21T15:57:01.600Z,101555.28
2023-05-21T16:00:06.550Z,101544.00
2023-05-21T16:03:10.212Z,101546.91
2023-05-21T16:06:15.272Z,101542.38
2023-05-21T16:09:19.080Z,101535.97
2023-05-21T16:12:22.881Z,101535.69
2023-05-21T16:15:28.500Z,101544.16
2023-05-21T16:18:32.128Z,101552.19
2023-05-21T16:21:37.090Z,101548.34
2023-05-21T16:24:40.899Z,101550.88
2023-05-21T16:27:44.344Z,101543.25
2023-05-21T16:30:47.884Z,101556.84
2023-05-21T16:33:51.449Z,101551.34
2023-05-21T16:36:56.537Z,101553.97
2023-05-21T16:40:00.024Z,101558.03
2023-05-21T16:43:03.715Z,101555.22
2023-05-21T16:46:07.322Z,101545.88
2023-05-21T16:49:10.860Z,101551.63
2023-05-21T16:52:15.693Z,101551.06
2023-05-21T16:55:19.750Z,101554.38
2023-05-21T16:58:23.227Z,101546.00
2023-05-21T17:01:26.945Z,101551.63
2023-05-21T17:04:30.666Z,101551.63
2023-05-21T17:07:35.672Z,101549.72
2023-05-21T17:10:39.237Z,101549.47
2023-05-21T17:13:42.996Z,101556.06
2023-05-21T17:16:46.565Z,101548.03
2023-05-21T17:19:50.859Z,101556.53
2023-05-21T17:22:55.845Z,101555.00
2023-05-21T17:25:59.410Z,101562.44
2023-05-21T17:29:03.139Z,101560.06
2023-05-21T17:32:07.653Z,101561.78
2023-05-21T17:35:11.563Z,101561.41
2023-05-21T17:38:16.599Z,101558.13
2023-05-21T17:41:20.253Z,101555.97
2023-05-21T17:44:23.820Z,101547.81
2023-05-21T17:47:27.883Z,101546.22
2023-05-21T17:50:32.490Z,101537.94
2023-05-21T17:53:37.411Z,101538.91
2023-05-21T17:56:40.994Z,101540.13
2023-05-21T17:59:45.757Z,101541.25
2023-05-21T18:02:49.258Z,101531.38
2023-05-21T18:05:53.027Z,101536.38
2023-05-21T18:08:58.288Z,101535.03
2023-05-21T18:12:03.887Z,101537.44
2023-05-21T18:15:09.129Z,101541.56
2023-05-21T18:18:19.868Z,101541.56
2023-05-21T18:21:26.368Z,101540.22
2023-05-21T18:24:31.329Z,101547.97
2023-05-21T18:27:34.831Z,101541.16
2023-05-21T18:30:39.683Z,101554.91
2023-05-21T18:33:43.275Z,101556.34
2023-05-21T18:36:46.808Z,101549.88
2023-05-21T18:39:51.644Z,101556.44
2023-05-21T18:42:55.145Z,101563.00
2023-05-21T18:45:58.940Z,101557.25
2023-05-21T18:49:02.473Z,101555.78
2023-05-21T18:52:07.183Z,101560.94
2023-05-21T18:55:12.332Z,101556.66
2023-05-21T18:58:16.663Z,101557.13
2023-05-21T19:01:20.330Z,101553.94
2023-05-21T19:04:23.861Z,101552.69
2023-05-21T19:07:27.680Z,101554.56
2023-05-21T19:10:32.678Z,101562.41
2023-05-21T19:13:36.352Z,101567.22
2023-05-21T19:16:40.020Z,101570.56
2023-05-21T19:19:43.654Z,101570.47
2023-05-21T19:22:48.132Z,101568.94
2023-05-21T19:25:53.168Z,101573.13
2023-05-21T19:28:57.685Z,101576.56
2023-05-21T19:32:01.338Z,101585.44
2023-05-21T19:35:05.727Z,101586.06
2023-05-21T19:38:12.085Z,101583.19
2023-05-21T19:41:17.433Z,101587.25
2023-05-21T19:44:21.040Z,101590.03
2023-05-21T19:47:24.653Z,101594.31
2023-05-21T19:50:28.987Z,101591.09
2023-05-21T19:53:32.816Z,101596.00
2023-05-21T19:56:37.757Z,101595.34
2023-05-21T19:59:41.314Z,101602.91
2023-05-21T20:02:45.077Z,101602.53
2023-05-21T20:05:48.788Z,101598.25
2023-05-21T20:08:52.262Z,101597.91
2023-05-21T20:11:57.359Z,101603.34
2023-05-21T20:15:01.080Z,101599.28
2023-05-21T20:18:06.575Z,101605.03
2023-05-21T20:21:10.668Z,101601.59
2023-05-21T20:24:14.261Z,101600.13
2023-05-21T20:27:19.575Z,101602.22
2023-05-21T20:30:23.282Z,101597.94
2023-05-21T20:33:28.703Z,101594.63
2023-05-21T20:36:33.929Z,101595.13
2023-05-21T20:39:38.248Z,101594.38
2023-05-21T20:42:46.258Z,101597.53
2023-05-21T20:45:50.055Z,101603.06
2023-05-21T20:48:53.732Z,101598.88
2023-05-21T20:51:57.365Z,101593.75
2023-05-21T20:55:00.945Z,101596.06
2023-05-21T20:58:06.627Z,101604.34
2023-05-21T21:01:10.815Z,101601.09
2023-05-21T21:04:14.421Z,101597.66
2023-05-21T21:07:19.149Z,101597.19
2023-05-21T21:10:22.962Z,101602.69
2023-05-21T21:13:28.004Z,101593.97
2023-05-21T21:16:31.603Z,101597.66
2023-05-21T21:19:35.450Z,101607.84
2023-05-21T21:22:38.973Z,101607.28
2023-05-21T21:25:42.628Z,101601.78
2023-05-21T21:28:47.517Z,101603.75
2023-05-21T21:31:51.408Z,101610.22
2023-05-21T21:34:55.047Z,101609.09
2023-05-21T21:37:58.992Z,101609.19
2023-05-21T21:41:02.498Z,101608.44
2023-05-21T21:44:07.606Z,101607.50
2023-05-21T21:47:11.206Z,101607.66
2023-05-21T21:50:15.057Z,101607.00
2023-05-21T21:53:18.756Z,101603.41
2023-05-21T21:56:22.271Z,101598.34
2023-05-21T21:59:27.348Z,101597.97
2023-05-21T22:02:30.961Z,101593.41
2023-05-21T22:05:34.528Z,101588.56
2023-05-21T22:08:38.047Z,101586.72
2023-05-21T22:11:41.629Z,101583.19
2023-05-21T22:14:46.577Z,101577.97
2023-05-21T22:17:50.267Z,101573.94
2023-05-21T22:20:53.965Z,101577.94
2023-05-21T22:23:57.601Z,101571.44
2023-05-21T22:27:01.296Z,101569.72
2023-05-21T22:30:09.903Z,101568.16
2023-05-21T22:33:13.459Z,101569.88
2023-05-21T22:36:17.101Z,101562.97
2023-05-21T22:39:20.890Z,101558.41
2023-05-21T22:42:24.573Z,101561.16
2023-05-21T22:45:30.454Z,101566.09
2023-05-21T22:48:34.100Z,101564.09
2023-05-21T22:51:37.880Z,101566.50
2023-05-21T22:54:41.387Z,101553.38
2023-05-21T22:57:45.884Z,101567.00
2023-05-21T23:00:51.137Z,101566.66
2023-05-21T23:03:54.761Z,101562.09
2023-05-21T23:06:58.335Z,101572.19
2023-05-21T23:10:01.925Z,101565.53
2023-05-21T23:13:05.573Z,101567.84
2023-05-21T23:16:10.632Z,101561.09
2023-05-21T23:19:14.285Z,101567.31
2023-05-21T23:22:17.926Z,101567.69
2023-05-21T23:25:21.415Z,101567.91
2023-05-21T23:28:25.139Z,101558.94
2023-05-21T23:31:30.459Z,101555.41
2023-05-21T23:34:34.173Z,101562.56
2023-05-21T23:37:37.757Z,101560.16
2023-05-21T23:40:41.383Z,101557.50
2023-05-21T23:43:44.969Z,101556.25
2023-05-21T23:46:50.155Z,101554.56
2023-05-21T23:49:53.725Z,101556.00
2023-05-21T23:52:57.727Z,101559.72
2023-05-21T23:56:01.392Z,101555.16
2023-05-21T23:59:04.995Z,101553.63
